Terminal Aerodrome Forecast
Issued by NWS

Home | Current Version | Previous Version | Text Only | Print | Product List | Glossary On
Versions: 1 2 3 4 5 6 7 8 9 10 11 12 13 14 15 16 17 18
755
FTUS42 TJSJ 011141
TAFJBQ
TAF
TJBQ 011141Z 0112/0212 VRB06KT P6SM SKC
     FM011330 07010KT P6SM FEW030 SCT050
     FM011630 07012KT P6SM VCTS SCT025CB BKN040
     FM012330 11008KT P6SM SCT025
      AMD NOT SKED 0202/0211=

USA.gov is the U.S. government's official web portal to all federal, state and local government web resources and services.